sensor_id;sensor_type;location;lat;lon;timestamp;P1;durP1;ratioP1;P2;durP2;ratioP2
52948;SDS011;38812;50.942;3.644;2023-03-19T00:01:09;6.03;;;3.88;;
52948;SDS011;38812;50.942;3.644;2023-03-19T00:03:35;4.70;;;3.40;;
52948;SDS011;38812;50.942;3.644;2023-03-19T00:06:00;5.93;;;3.50;;
52948;SDS011;38812;50.942;3.644;2023-03-19T00:08:26;5.70;;;4.30;;
52948;SDS011;38812;50.942;3.644;2023-03-19T00:10:52;7.13;;;3.50;;
52948;SDS011;38812;50.942;3.644;2023-03-19T00:13:18;7.75;;;3.70;;
52948;SDS011;38812;50.942;3.644;2023-03-19T00:15:44;5.65;;;3.65;;
52948;SDS011;38812;50.942;3.644;2023-03-19T00:18:10;5.53;;;3.13;;
52948;SDS011;38812;50.942;3.644;2023-03-19T00:20:36;6.63;;;3.65;;
52948;SDS011;38812;50.942;3.644;2023-03-19T00:23:01;5.40;;;3.47;;
52948;SDS011;38812;50.942;3.644;2023-03-19T00:25:26;5.63;;;3.45;;
52948;SDS011;38812;50.942;3.644;2023-03-19T00:27:52;6.18;;;4.15;;
52948;SDS011;38812;50.942;3.644;2023-03-19T00:30:19;7.00;;;3.75;;
52948;SDS011;38812;50.942;3.644;2023-03-19T00:32:45;7.20;;;4.50;;
52948;SDS011;38812;50.942;3.644;2023-03-19T00:35:12;4.90;;;4.00;;
52948;SDS011;38812;50.942;3.644;2023-03-19T00:37:37;8.20;;;4.45;;
52948;SDS011;38812;50.942;3.644;2023-03-19T00:40:03;7.03;;;5.22;;
52948;SDS011;38812;50.942;3.644;2023-03-19T00:42:29;8.15;;;5.50;;
52948;SDS011;38812;50.942;3.644;2023-03-19T00:44:55;8.52;;;5.25;;
52948;SDS011;38812;50.942;3.644;2023-03-19T00:47:21;6.95;;;4.72;;
52948;SDS011;38812;50.942;3.644;2023-03-19T00:49:47;6.65;;;5.25;;
52948;SDS011;38812;50.942;3.644;2023-03-19T00:52:13;10.20;;;5.57;;
52948;SDS011;38812;50.942;3.644;2023-03-19T00:54:38;7.10;;;5.90;;
52948;SDS011;38812;50.942;3.644;2023-03-19T00:57:04;8.52;;;5.40;;
52948;SDS011;38812;50.942;3.644;2023-03-19T00:59:29;8.45;;;5.55;;
52948;SDS011;38812;50.942;3.644;2023-03-19T01:01:55;7.43;;;5.45;;
52948;SDS011;38812;50.942;3.644;2023-03-19T01:04:20;10.60;;;4.97;;
52948;SDS011;38812;50.942;3.644;2023-03-19T01:06:47;8.68;;;4.90;;
52948;SDS011;38812;50.942;3.644;2023-03-19T01:09:13;9.57;;;5.28;;
52948;SDS011;38812;50.942;3.644;2023-03-19T01:11:39;8.93;;;5.40;;
52948;SDS011;38812;50.942;3.644;2023-03-19T01:14:04;7.13;;;4.03;;
52948;SDS011;38812;50.942;3.644;2023-03-19T01:16:30;7.85;;;4.63;;
52948;SDS011;38812;50.942;3.644;2023-03-19T01:18:55;7.45;;;4.35;;
52948;SDS011;38812;50.942;3.644;2023-03-19T01:21:21;5.75;;;3.60;;
52948;SDS011;38812;50.942;3.644;2023-03-19T01:23:47;11.82;;;4.28;;
52948;SDS011;38812;50.942;3.644;2023-03-19T01:26:12;6.45;;;4.05;;
52948;SDS011;38812;50.942;3.644;2023-03-19T01:28:38;6.55;;;4.18;;
52948;SDS011;38812;50.942;3.644;2023-03-19T01:31:04;7.95;;;4.22;;
52948;SDS011;38812;50.942;3.644;2023-03-19T01:33:32;5.00;;;4.25;;
52948;SDS011;38812;50.942;3.644;2023-03-19T01:35:57;6.43;;;4.05;;
52948;SDS011;38812;50.942;3.644;2023-03-19T01:38:26;10.57;;;4.70;;
52948;SDS011;38812;50.942;3.644;2023-03-19T01:40:52;7.72;;;5.00;;
52948;SDS011;38812;50.942;3.644;2023-03-19T01:43:18;8.50;;;4.75;;
52948;SDS011;38812;50.942;3.644;2023-03-19T01:45:49;11.30;;;3.67;;
52948;SDS011;38812;50.942;3.644;2023-03-19T01:48:37;11.57;;;4.20;;
52948;SDS011;38812;50.942;3.644;2023-03-19T01:51:06;10.90;;;3.92;;
52948;SDS011;38812;50.942;3.644;2023-03-19T01:53:35;10.68;;;4.25;;
52948;SDS011;38812;50.942;3.644;2023-03-19T01:56:06;8.75;;;3.88;;
52948;SDS011;38812;50.942;3.644;2023-03-19T01:58:36;5.75;;;3.50;;
52948;SDS011;38812;50.942;3.644;2023-03-19T02:01:04;8.82;;;5.40;;
52948;SDS011;38812;50.942;3.644;2023-03-19T02:03:29;8.80;;;3.88;;
52948;SDS011;38812;50.942;3.644;2023-03-19T02:05:55;4.85;;;3.20;;
52948;SDS011;38812;50.942;3.644;2023-03-19T02:08:23;9.85;;;3.85;;
52948;SDS011;38812;50.942;3.644;2023-03-19T02:10:49;5.80;;;3.38;;
52948;SDS011;38812;50.942;3.644;2023-03-19T02:13:17;7.75;;;4.22;;
52948;SDS011;38812;50.942;3.644;2023-03-19T02:15:43;10.50;;;3.30;;
52948;SDS011;38812;50.942;3.644;2023-03-19T02:18:08;7.00;;;4.50;;
52948;SDS011;38812;50.942;3.644;2023-03-19T02:25:59;8.32;;;3.95;;
52948;SDS011;38812;50.942;3.644;2023-03-19T02:28:30;9.02;;;5.25;;
52948;SDS011;38812;50.942;3.644;2023-03-19T02:30:57;8.25;;;4.47;;
52948;SDS011;38812;50.942;3.644;2023-03-19T02:33:23;9.55;;;3.45;;
52948;SDS011;38812;50.942;3.644;2023-03-19T02:35:49;7.32;;;4.72;;
52948;SDS011;38812;50.942;3.644;2023-03-19T02:38:16;10.05;;;4.50;;
52948;SDS011;38812;50.942;3.644;2023-03-19T02:40:49;6.97;;;3.97;;
52948;SDS011;38812;50.942;3.644;2023-03-19T02:43:15;8.13;;;4.18;;
52948;SDS011;38812;50.942;3.644;2023-03-19T02:45:41;9.05;;;4.07;;
52948;SDS011;38812;50.942;3.644;2023-03-19T02:48:06;10.30;;;3.92;;
52948;SDS011;38812;50.942;3.644;2023-03-19T02:50:32;9.10;;;4.82;;
52948;SDS011;38812;50.942;3.644;2023-03-19T02:52:57;7.25;;;4.60;;
52948;SDS011;38812;50.942;3.644;2023-03-19T02:55:22;8.45;;;5.00;;
52948;SDS011;38812;50.942;3.644;2023-03-19T02:57:48;8.18;;;4.82;;
52948;SDS011;38812;50.942;3.644;2023-03-19T03:00:14;8.93;;;4.65;;
52948;SDS011;38812;50.942;3.644;2023-03-19T03:02:41;12.90;;;5.32;;
52948;SDS011;38812;50.942;3.644;2023-03-19T03:05:07;12.38;;;5.53;;
52948;SDS011;38812;50.942;3.644;2023-03-19T03:07:33;9.10;;;4.95;;
52948;SDS011;38812;50.942;3.644;2023-03-19T03:09:59;10.90;;;5.60;;
52948;SDS011;38812;50.942;3.644;2023-03-19T03:12:24;11.18;;;5.45;;
52948;SDS011;38812;50.942;3.644;2023-03-19T03:14:50;14.07;;;6.63;;
52948;SDS011;38812;50.942;3.644;2023-03-19T03:17:15;14.90;;;5.93;;
52948;SDS011;38812;50.942;3.644;2023-03-19T03:19:41;9.75;;;5.40;;
52948;SDS011;38812;50.942;3.644;2023-03-19T03:22:06;17.30;;;6.50;;
52948;SDS011;38812;50.942;3.644;2023-03-19T03:24:32;11.93;;;6.10;;
52948;SDS011;38812;50.942;3.644;2023-03-19T03:26:57;11.85;;;5.95;;
52948;SDS011;38812;50.942;3.644;2023-03-19T03:29:23;13.50;;;7.07;;
52948;SDS011;38812;50.942;3.644;2023-03-19T03:31:49;12.50;;;7.00;;
52948;SDS011;38812;50.942;3.644;2023-03-19T03:34:15;13.98;;;7.60;;
52948;SDS011;38812;50.942;3.644;2023-03-19T03:36:41;15.75;;;7.47;;
52948;SDS011;38812;50.942;3.644;2023-03-19T03:39:07;16.63;;;6.97;;
52948;SDS011;38812;50.942;3.644;2023-03-19T03:41:32;15.55;;;7.72;;
52948;SDS011;38812;50.942;3.644;2023-03-19T03:43:58;17.60;;;7.32;;
52948;SDS011;38812;50.942;3.644;2023-03-19T03:46:23;20.83;;;7.95;;
52948;SDS011;38812;50.942;3.644;2023-03-19T03:48:48;14.38;;;7.40;;
52948;SDS011;38812;50.942;3.644;2023-03-19T03:51:15;13.43;;;8.00;;
52948;SDS011;38812;50.942;3.644;2023-03-19T03:53:41;17.27;;;7.53;;
52948;SDS011;38812;50.942;3.644;2023-03-19T03:56:07;22.33;;;8.35;;
52948;SDS011;38812;50.942;3.644;2023-03-19T03:58:32;12.60;;;7.07;;
52948;SDS011;38812;50.942;3.644;2023-03-19T04:00:58;12.73;;;9.32;;
52948;SDS011;38812;50.942;3.644;2023-03-19T04:03:23;14.73;;;7.93;;
52948;SDS011;38812;50.942;3.644;2023-03-19T04:05:49;17.85;;;7.38;;
52948;SDS011;38812;50.942;3.644;2023-03-19T04:08:15;10.00;;;7.25;;
52948;SDS011;38812;50.942;3.644;2023-03-19T04:10:41;17.80;;;8.00;;
52948;SDS011;38812;50.942;3.644;2023-03-19T04:13:07;15.70;;;7.38;;
52948;SDS011;38812;50.942;3.644;2023-03-19T04:15:33;16.15;;;7.13;;
52948;SDS011;38812;50.942;3.644;2023-03-19T04:17:59;16.23;;;7.20;;
52948;SDS011;38812;50.942;3.644;2023-03-19T04:20:24;17.15;;;7.35;;
52948;SDS011;38812;50.942;3.644;2023-03-19T04:22:50;16.02;;;5.93;;
52948;SDS011;38812;50.942;3.644;2023-03-19T04:25:16;20.35;;;6.50;;
52948;SDS011;38812;50.942;3.644;2023-03-19T04:27:42;14.50;;;6.15;;
52948;SDS011;38812;50.942;3.644;2023-03-19T04:30:08;17.83;;;5.40;;
52948;SDS011;38812;50.942;3.644;2023-03-19T04:32:35;18.25;;;6.35;;
52948;SDS011;38812;50.942;3.644;2023-03-19T04:35:01;18.30;;;6.25;;
52948;SDS011;38812;50.942;3.644;2023-03-19T04:37:27;16.73;;;4.80;;
52948;SDS011;38812;50.942;3.644;2023-03-19T04:39:52;24.45;;;5.13;;
52948;SDS011;38812;50.942;3.644;2023-03-19T04:42:18;11.95;;;5.47;;
52948;SDS011;38812;50.942;3.644;2023-03-19T04:44:44;18.77;;;5.70;;
52948;SDS011;38812;50.942;3.644;2023-03-19T04:47:09;11.63;;;4.75;;
52948;SDS011;38812;50.942;3.644;2023-03-19T04:49:35;21.48;;;4.55;;
52948;SDS011;38812;50.942;3.644;2023-03-19T04:52:00;20.35;;;4.13;;
52948;SDS011;38812;50.942;3.644;2023-03-19T04:54:26;17.75;;;4.13;;
52948;SDS011;38812;50.942;3.644;2023-03-19T04:56:52;12.98;;;3.90;;
52948;SDS011;38812;50.942;3.644;2023-03-19T04:59:17;11.95;;;4.25;;
52948;SDS011;38812;50.942;3.644;2023-03-19T05:01:43;14.07;;;3.88;;
52948;SDS011;38812;50.942;3.644;2023-03-19T05:04:08;15.80;;;3.75;;
52948;SDS011;38812;50.942;3.644;2023-03-19T05:06:34;13.75;;;3.15;;
52948;SDS011;38812;50.942;3.644;2023-03-19T05:09:02;15.60;;;3.90;;
52948;SDS011;38812;50.942;3.644;2023-03-19T05:11:28;11.88;;;3.88;;
52948;SDS011;38812;50.942;3.644;2023-03-19T05:13:54;16.88;;;3.83;;
52948;SDS011;38812;50.942;3.644;2023-03-19T05:16:20;21.05;;;4.30;;
52948;SDS011;38812;50.942;3.644;2023-03-19T05:18:45;19.70;;;4.00;;
52948;SDS011;38812;50.942;3.644;2023-03-19T05:21:11;16.98;;;4.75;;
52948;SDS011;38812;50.942;3.644;2023-03-19T05:23:37;16.58;;;4.13;;
52948;SDS011;38812;50.942;3.644;2023-03-19T05:26:03;18.67;;;3.83;;
52948;SDS011;38812;50.942;3.644;2023-03-19T05:28:28;17.42;;;4.07;;
52948;SDS011;38812;50.942;3.644;2023-03-19T05:30:54;14.65;;;4.18;;
52948;SDS011;38812;50.942;3.644;2023-03-19T05:33:20;13.80;;;3.95;;
52948;SDS011;38812;50.942;3.644;2023-03-19T05:35:46;22.13;;;4.53;;
52948;SDS011;38812;50.942;3.644;2023-03-19T05:38:12;13.55;;;3.90;;
52948;SDS011;38812;50.942;3.644;2023-03-19T05:40:38;14.10;;;3.78;;
52948;SDS011;38812;50.942;3.644;2023-03-19T05:43:06;19.05;;;3.95;;
52948;SDS011;38812;50.942;3.644;2023-03-19T05:45:32;13.40;;;3.85;;
52948;SDS011;38812;50.942;3.644;2023-03-19T05:47:57;26.38;;;4.18;;
52948;SDS011;38812;50.942;3.644;2023-03-19T05:50:22;20.85;;;4.10;;
52948;SDS011;38812;50.942;3.644;2023-03-19T05:52:48;19.02;;;4.78;;
52948;SDS011;38812;50.942;3.644;2023-03-19T05:55:13;19.38;;;4.55;;
52948;SDS011;38812;50.942;3.644;2023-03-19T05:57:39;18.70;;;4.05;;
52948;SDS011;38812;50.942;3.644;2023-03-19T06:00:05;18.13;;;4.63;;
52948;SDS011;38812;50.942;3.644;2023-03-19T06:02:31;14.02;;;4.57;;
52948;SDS011;38812;50.942;3.644;2023-03-19T06:04:58;22.83;;;4.78;;
52948;SDS011;38812;50.942;3.644;2023-03-19T06:07:23;15.25;;;4.72;;
52948;SDS011;38812;50.942;3.644;2023-03-19T06:09:48;14.93;;;4.97;;
52948;SDS011;38812;50.942;3.644;2023-03-19T06:12:14;13.40;;;5.03;;
52948;SDS011;38812;50.942;3.644;2023-03-19T06:14:40;14.13;;;4.40;;
52948;SDS011;38812;50.942;3.644;2023-03-19T06:17:05;21.00;;;4.72;;
52948;SDS011;38812;50.942;3.644;2023-03-19T06:19:31;21.73;;;4.45;;
52948;SDS011;38812;50.942;3.644;2023-03-19T06:21:56;9.23;;;4.30;;
52948;SDS011;38812;50.942;3.644;2023-03-19T06:24:22;11.55;;;3.75;;
52948;SDS011;38812;50.942;3.644;2023-03-19T06:26:47;17.15;;;4.57;;
52948;SDS011;38812;50.942;3.644;2023-03-19T06:29:12;17.30;;;5.28;;
52948;SDS011;38812;50.942;3.644;2023-03-19T06:31:38;15.82;;;5.82;;
52948;SDS011;38812;50.942;3.644;2023-03-19T06:34:05;18.88;;;5.65;;
52948;SDS011;38812;50.942;3.644;2023-03-19T06:36:31;20.17;;;5.13;;
52948;SDS011;38812;50.942;3.644;2023-03-19T06:38:56;12.27;;;5.53;;
52948;SDS011;38812;50.942;3.644;2023-03-19T06:41:22;13.55;;;5.95;;
52948;SDS011;38812;50.942;3.644;2023-03-19T06:43:49;12.70;;;5.60;;
52948;SDS011;38812;50.942;3.644;2023-03-19T06:46:14;17.42;;;5.38;;
52948;SDS011;38812;50.942;3.644;2023-03-19T06:48:40;16.25;;;5.43;;
52948;SDS011;38812;50.942;3.644;2023-03-19T06:51:05;20.70;;;5.95;;
52948;SDS011;38812;50.942;3.644;2023-03-19T06:53:31;20.65;;;6.40;;
52948;SDS011;38812;50.942;3.644;2023-03-19T06:55:57;16.90;;;6.22;;
52948;SDS011;38812;50.942;3.644;2023-03-19T06:58:22;20.48;;;6.15;;
52948;SDS011;38812;50.942;3.644;2023-03-19T07:00:48;15.15;;;6.20;;
52948;SDS011;38812;50.942;3.644;2023-03-19T07:03:13;14.05;;;6.75;;
52948;SDS011;38812;50.942;3.644;2023-03-19T07:05:39;18.90;;;7.30;;
52948;SDS011;38812;50.942;3.644;2023-03-19T07:08:04;16.70;;;7.13;;
52948;SDS011;38812;50.942;3.644;2023-03-19T07:10:35;13.73;;;6.78;;
52948;SDS011;38812;50.942;3.644;2023-03-19T07:13:04;19.60;;;5.95;;
52948;SDS011;38812;50.942;3.644;2023-03-19T07:15:30;21.92;;;7.70;;
52948;SDS011;38812;50.942;3.644;2023-03-19T07:17:55;19.38;;;7.20;;
52948;SDS011;38812;50.942;3.644;2023-03-19T07:20:21;21.67;;;7.57;;
52948;SDS011;38812;50.942;3.644;2023-03-19T07:22:49;17.52;;;6.88;;
52948;SDS011;38812;50.942;3.644;2023-03-19T07:25:15;14.80;;;7.15;;
52948;SDS011;38812;50.942;3.644;2023-03-19T07:27:40;18.10;;;7.78;;
52948;SDS011;38812;50.942;3.644;2023-03-19T07:30:06;15.77;;;6.57;;
52948;SDS011;38812;50.942;3.644;2023-03-19T07:32:32;12.38;;;5.65;;
52948;SDS011;38812;50.942;3.644;2023-03-19T07:34:57;16.42;;;6.00;;
52948;SDS011;38812;50.942;3.644;2023-03-19T07:37:23;15.13;;;5.68;;
52948;SDS011;38812;50.942;3.644;2023-03-19T07:39:48;20.08;;;5.95;;
52948;SDS011;38812;50.942;3.644;2023-03-19T07:42:13;17.33;;;6.97;;
52948;SDS011;38812;50.942;3.644;2023-03-19T07:44:39;12.27;;;6.40;;
52948;SDS011;38812;50.942;3.644;2023-03-19T07:47:04;14.32;;;6.32;;
52948;SDS011;38812;50.942;3.644;2023-03-19T07:49:30;17.10;;;6.45;;
52948;SDS011;38812;50.942;3.644;2023-03-19T07:51:55;13.93;;;6.35;;
52948;SDS011;38812;50.942;3.644;2023-03-19T07:54:21;13.23;;;5.85;;
52948;SDS011;38812;50.942;3.644;2023-03-19T07:56:47;17.58;;;6.95;;
52948;SDS011;38812;50.942;3.644;2023-03-19T07:59:13;17.63;;;6.65;;
52948;SDS011;38812;50.942;3.644;2023-03-19T08:01:38;18.00;;;7.47;;
52948;SDS011;38812;50.942;3.644;2023-03-19T08:04:03;18.48;;;6.28;;
52948;SDS011;38812;50.942;3.644;2023-03-19T08:06:29;16.00;;;6.43;;
52948;SDS011;38812;50.942;3.644;2023-03-19T08:08:54;15.05;;;6.75;;
52948;SDS011;38812;50.942;3.644;2023-03-19T08:11:20;18.02;;;7.75;;
52948;SDS011;38812;50.942;3.644;2023-03-19T08:13:46;20.13;;;7.07;;
52948;SDS011;38812;50.942;3.644;2023-03-19T08:16:11;14.30;;;6.45;;
52948;SDS011;38812;50.942;3.644;2023-03-19T08:18:37;20.08;;;7.03;;
52948;SDS011;38812;50.942;3.644;2023-03-19T08:21:03;17.70;;;5.68;;
52948;SDS011;38812;50.942;3.644;2023-03-19T08:23:29;13.90;;;6.82;;
52948;SDS011;38812;50.942;3.644;2023-03-19T08:25:55;17.80;;;6.97;;
52948;SDS011;38812;50.942;3.644;2023-03-19T08:28:21;20.05;;;7.18;;
52948;SDS011;38812;50.942;3.644;2023-03-19T08:30:47;17.55;;;7.43;;
52948;SDS011;38812;50.942;3.644;2023-03-19T08:33:12;17.25;;;7.30;;
52948;SDS011;38812;50.942;3.644;2023-03-19T08:35:38;23.98;;;8.50;;
52948;SDS011;38812;50.942;3.644;2023-03-19T08:38:04;16.73;;;8.43;;
52948;SDS011;38812;50.942;3.644;2023-03-19T08:40:29;16.85;;;8.38;;
52948;SDS011;38812;50.942;3.644;2023-03-19T08:42:55;17.38;;;8.73;;
52948;SDS011;38812;50.942;3.644;2023-03-19T08:45:20;17.63;;;9.00;;
52948;SDS011;38812;50.942;3.644;2023-03-19T08:47:46;16.30;;;9.25;;
52948;SDS011;38812;50.942;3.644;2023-03-19T08:50:12;19.73;;;8.52;;
52948;SDS011;38812;50.942;3.644;2023-03-19T08:52:39;22.60;;;10.45;;
52948;SDS011;38812;50.942;3.644;2023-03-19T08:55:04;18.02;;;9.60;;
52948;SDS011;38812;50.942;3.644;2023-03-19T08:57:31;19.63;;;9.82;;
52948;SDS011;38812;50.942;3.644;2023-03-19T08:59:56;19.92;;;10.05;;
52948;SDS011;38812;50.942;3.644;2023-03-19T09:02:22;20.98;;;9.95;;
52948;SDS011;38812;50.942;3.644;2023-03-19T09:04:48;21.55;;;9.98;;
52948;SDS011;38812;50.942;3.644;2023-03-19T09:07:13;18.33;;;9.82;;
52948;SDS011;38812;50.942;3.644;2023-03-19T09:09:42;25.48;;;11.80;;
52948;SDS011;38812;50.942;3.644;2023-03-19T09:12:13;22.77;;;10.57;;
52948;SDS011;38812;50.942;3.644;2023-03-19T09:14:41;23.60;;;9.60;;
52948;SDS011;38812;50.942;3.644;2023-03-19T09:17:07;16.13;;;10.27;;
52948;SDS011;38812;50.942;3.644;2023-03-19T09:19:33;25.25;;;11.98;;
52948;SDS011;38812;50.942;3.644;2023-03-19T09:21:59;30.17;;;11.70;;
52948;SDS011;38812;50.942;3.644;2023-03-19T09:24:25;23.38;;;12.43;;
52948;SDS011;38812;50.942;3.644;2023-03-19T09:26:51;22.65;;;13.07;;
52948;SDS011;38812;50.942;3.644;2023-03-19T09:29:16;26.25;;;14.30;;
52948;SDS011;38812;50.942;3.644;2023-03-19T09:31:42;27.45;;;14.45;;
52948;SDS011;38812;50.942;3.644;2023-03-19T09:34:08;25.23;;;13.63;;
52948;SDS011;38812;50.942;3.644;2023-03-19T09:36:36;32.83;;;15.48;;
52948;SDS011;38812;50.942;3.644;2023-03-19T09:39:02;30.45;;;13.88;;
52948;SDS011;38812;50.942;3.644;2023-03-19T09:44:13;21.60;;;12.73;;
52948;SDS011;38812;50.942;3.644;2023-03-19T09:46:53;23.55;;;12.10;;
52948;SDS011;38812;50.942;3.644;2023-03-19T09:52:00;20.45;;;11.60;;
52948;SDS011;38812;50.942;3.644;2023-03-19T09:54:42;20.63;;;13.55;;
52948;SDS011;38812;50.942;3.644;2023-03-19T09:57:11;17.90;;;9.48;;
52948;SDS011;38812;50.942;3.644;2023-03-19T09:59:37;21.27;;;10.38;;
52948;SDS011;38812;50.942;3.644;2023-03-19T10:04:40;15.77;;;9.15;;
52948;SDS011;38812;50.942;3.644;2023-03-19T10:07:13;17.00;;;9.25;;
52948;SDS011;38812;50.942;3.644;2023-03-19T10:15:30;19.10;;;9.48;;
52948;SDS011;38812;50.942;3.644;2023-03-19T10:20:51;16.55;;;8.43;;
52948;SDS011;38812;50.942;3.644;2023-03-19T10:26:33;15.80;;;7.63;;
52948;SDS011;38812;50.942;3.644;2023-03-19T10:36:39;12.75;;;7.70;;
52948;SDS011;38812;50.942;3.644;2023-03-19T10:39:05;10.65;;;6.43;;
52948;SDS011;38812;50.942;3.644;2023-03-19T10:44:08;6.75;;;5.68;;
52948;SDS011;38812;50.942;3.644;2023-03-19T10:46:41;8.07;;;6.00;;
52948;SDS011;38812;50.942;3.644;2023-03-19T10:49:10;7.78;;;5.88;;
52948;SDS011;38812;50.942;3.644;2023-03-19T10:51:37;9.63;;;6.40;;
52948;SDS011;38812;50.942;3.644;2023-03-19T10:54:12;7.43;;;5.30;;
52948;SDS011;38812;50.942;3.644;2023-03-19T10:56:50;11.35;;;6.75;;
52948;SDS011;38812;50.942;3.644;2023-03-19T10:59:21;16.10;;;7.03;;
52948;SDS011;38812;50.942;3.644;2023-03-19T11:01:56;7.22;;;5.63;;
52948;SDS011;38812;50.942;3.644;2023-03-19T11:04:23;12.20;;;6.38;;
52948;SDS011;38812;50.942;3.644;2023-03-19T11:06:54;15.05;;;6.78;;
52948;SDS011;38812;50.942;3.644;2023-03-19T11:09:33;11.07;;;6.20;;
52948;SDS011;38812;50.942;3.644;2023-03-19T11:14:56;12.05;;;5.05;;
52948;SDS011;38812;50.942;3.644;2023-03-19T11:22:35;4.63;;;3.58;;
52948;SDS011;38812;50.942;3.644;2023-03-19T11:25:13;4.95;;;3.60;;
52948;SDS011;38812;50.942;3.644;2023-03-19T11:27:39;7.40;;;3.78;;
52948;SDS011;38812;50.942;3.644;2023-03-19T11:30:39;7.20;;;4.07;;
52948;SDS011;38812;50.942;3.644;2023-03-19T11:35:47;5.70;;;4.30;;
52948;SDS011;38812;50.942;3.644;2023-03-19T11:38:23;7.45;;;3.92;;
52948;SDS011;38812;50.942;3.644;2023-03-19T11:46:22;6.43;;;3.53;;
52948;SDS011;38812;50.942;3.644;2023-03-19T12:02:43;5.20;;;2.75;;
52948;SDS011;38812;50.942;3.644;2023-03-19T12:05:31;4.57;;;2.53;;
52948;SDS011;38812;50.942;3.644;2023-03-19T12:10:51;4.97;;;2.00;;
52948;SDS011;38812;50.942;3.644;2023-03-19T12:13:50;4.82;;;1.77;;
52948;SDS011;38812;50.942;3.644;2023-03-19T12:18:53;5.80;;;1.55;;
52948;SDS011;38812;50.942;3.644;2023-03-19T12:21:28;2.10;;;1.70;;
52948;SDS011;38812;50.942;3.644;2023-03-19T12:29:19;3.33;;;1.55;;
52948;SDS011;38812;50.942;3.644;2023-03-19T12:31:54;5.20;;;1.67;;
52948;SDS011;38812;50.942;3.644;2023-03-19T12:34:43;3.35;;;1.80;;
52948;SDS011;38812;50.942;3.644;2023-03-19T12:42:40;3.90;;;1.70;;
52948;SDS011;38812;50.942;3.644;2023-03-19T12:48:07;6.85;;;1.30;;
52948;SDS011;38812;50.942;3.644;2023-03-19T12:50:38;5.90;;;1.25;;
52948;SDS011;38812;50.942;3.644;2023-03-19T12:53:10;4.78;;;2.00;;
52948;SDS011;38812;50.942;3.644;2023-03-19T12:55:48;4.22;;;1.90;;
52948;SDS011;38812;50.942;3.644;2023-03-19T13:01:06;6.82;;;2.13;;
52948;SDS011;38812;50.942;3.644;2023-03-19T13:03:42;13.60;;;2.67;;
52948;SDS011;38812;50.942;3.644;2023-03-19T13:06:33;9.55;;;2.33;;
52948;SDS011;38812;50.942;3.644;2023-03-19T13:09:12;5.38;;;2.10;;
52948;SDS011;38812;50.942;3.644;2023-03-19T13:16:52;6.18;;;2.45;;
52948;SDS011;38812;50.942;3.644;2023-03-19T13:22:17;6.97;;;2.95;;
52948;SDS011;38812;50.942;3.644;2023-03-19T13:24:49;5.55;;;2.38;;
52948;SDS011;38812;50.942;3.644;2023-03-19T13:29:57;8.82;;;3.08;;
52948;SDS011;38812;50.942;3.644;2023-03-19T13:32:36;5.28;;;2.95;;
52948;SDS011;38812;50.942;3.644;2023-03-19T13:35:16;9.70;;;3.03;;
52948;SDS011;38812;50.942;3.644;2023-03-19T13:37:43;13.98;;;4.05;;
52948;SDS011;38812;50.942;3.644;2023-03-19T13:49:01;8.10;;;4.22;;
52948;SDS011;38812;50.942;3.644;2023-03-19T13:51:52;8.32;;;3.53;;
52948;SDS011;38812;50.942;3.644;2023-03-19T13:54:20;12.43;;;4.03;;
52948;SDS011;38812;50.942;3.644;2023-03-19T13:59:32;11.65;;;4.35;;
52948;SDS011;38812;50.942;3.644;2023-03-19T14:01:59;11.32;;;3.55;;
52948;SDS011;38812;50.942;3.644;2023-03-19T14:04:27;6.82;;;3.08;;
52948;SDS011;38812;50.942;3.644;2023-03-19T14:06:56;9.93;;;3.25;;
52948;SDS011;38812;50.942;3.644;2023-03-19T14:09:34;12.05;;;3.50;;
52948;SDS011;38812;50.942;3.644;2023-03-19T14:17:25;7.28;;;2.97;;
52948;SDS011;38812;50.942;3.644;2023-03-19T14:19:55;7.25;;;3.65;;
52948;SDS011;38812;50.942;3.644;2023-03-19T14:22:39;10.02;;;3.38;;
52948;SDS011;38812;50.942;3.644;2023-03-19T14:25:26;7.65;;;3.53;;
52948;SDS011;38812;50.942;3.644;2023-03-19T14:28:14;8.30;;;3.90;;
52948;SDS011;38812;50.942;3.644;2023-03-19T14:30:44;8.02;;;3.92;;
52948;SDS011;38812;50.942;3.644;2023-03-19T14:33:17;8.38;;;3.80;;
52948;SDS011;38812;50.942;3.644;2023-03-19T14:35:46;9.95;;;4.15;;
52948;SDS011;38812;50.942;3.644;2023-03-19T14:38:26;7.05;;;3.30;;
52948;SDS011;38812;50.942;3.644;2023-03-19T14:40:58;11.50;;;3.85;;
52948;SDS011;38812;50.942;3.644;2023-03-19T14:57:06;7.50;;;3.30;;
52948;SDS011;38812;50.942;3.644;2023-03-19T14:59:52;6.00;;;3.28;;
52948;SDS011;38812;50.942;3.644;2023-03-19T15:02:35;6.72;;;3.30;;
52948;SDS011;38812;50.942;3.644;2023-03-19T15:07:34;7.10;;;3.28;;
52948;SDS011;38812;50.942;3.644;2023-03-19T15:10:02;8.77;;;3.83;;
52948;SDS011;38812;50.942;3.644;2023-03-19T15:18:10;9.27;;;2.78;;
52948;SDS011;38812;50.942;3.644;2023-03-19T15:20:38;10.13;;;2.80;;
52948;SDS011;38812;50.942;3.644;2023-03-19T15:23:08;4.18;;;2.50;;
52948;SDS011;38812;50.942;3.644;2023-03-19T15:25:52;6.88;;;3.55;;
52948;SDS011;38812;50.942;3.644;2023-03-19T15:28:22;6.03;;;2.20;;
52948;SDS011;38812;50.942;3.644;2023-03-19T15:30:56;5.65;;;2.38;;
52948;SDS011;38812;50.942;3.644;2023-03-19T15:33:23;7.30;;;2.88;;
52948;SDS011;38812;50.942;3.644;2023-03-19T15:36:06;4.93;;;2.58;;
52948;SDS011;38812;50.942;3.644;2023-03-19T15:38:50;4.68;;;2.78;;
52948;SDS011;38812;50.942;3.644;2023-03-19T15:41:21;7.65;;;2.72;;
52948;SDS011;38812;50.942;3.644;2023-03-19T15:43:49;8.00;;;2.47;;
52948;SDS011;38812;50.942;3.644;2023-03-19T15:46:17;8.07;;;2.58;;
52948;SDS011;38812;50.942;3.644;2023-03-19T15:48:49;6.15;;;2.83;;
52948;SDS011;38812;50.942;3.644;2023-03-19T15:51:35;4.88;;;2.42;;
52948;SDS011;38812;50.942;3.644;2023-03-19T15:54:01;6.95;;;2.10;;
52948;SDS011;38812;50.942;3.644;2023-03-19T15:56:28;7.80;;;2.80;;
52948;SDS011;38812;50.942;3.644;2023-03-19T15:58:56;5.05;;;3.45;;
52948;SDS011;38812;50.942;3.644;2023-03-19T16:01:22;12.10;;;5.82;;
52948;SDS011;38812;50.942;3.644;2023-03-19T16:04:05;8.38;;;4.10;;
52948;SDS011;38812;50.942;3.644;2023-03-19T16:06:36;5.07;;;2.22;;
52948;SDS011;38812;50.942;3.644;2023-03-19T16:09:14;5.63;;;2.58;;
52948;SDS011;38812;50.942;3.644;2023-03-19T16:11:46;7.10;;;2.78;;
52948;SDS011;38812;50.942;3.644;2023-03-19T16:14:20;10.23;;;2.58;;
52948;SDS011;38812;50.942;3.644;2023-03-19T16:16:49;8.20;;;2.83;;
52948;SDS011;38812;50.942;3.644;2023-03-19T16:19:32;9.20;;;2.92;;
52948;SDS011;38812;50.942;3.644;2023-03-19T16:22:00;11.50;;;2.90;;
52948;SDS011;38812;50.942;3.644;2023-03-19T16:24:35;6.70;;;2.78;;
52948;SDS011;38812;50.942;3.644;2023-03-19T16:27:05;9.75;;;2.72;;
52948;SDS011;38812;50.942;3.644;2023-03-19T16:32:19;9.40;;;3.83;;
52948;SDS011;38812;50.942;3.644;2023-03-19T16:37:25;13.43;;;3.13;;
52948;SDS011;38812;50.942;3.644;2023-03-19T16:39:56;8.73;;;3.92;;
52948;SDS011;38812;50.942;3.644;2023-03-19T16:45:00;7.78;;;3.40;;
52948;SDS011;38812;50.942;3.644;2023-03-19T16:47:27;8.73;;;3.17;;
52948;SDS011;38812;50.942;3.644;2023-03-19T16:49:53;10.48;;;3.92;;
52948;SDS011;38812;50.942;3.644;2023-03-19T16:52:19;8.93;;;4.03;;
52948;SDS011;38812;50.942;3.644;2023-03-19T16:54:46;10.40;;;4.20;;
52948;SDS011;38812;50.942;3.644;2023-03-19T16:57:12;8.55;;;4.55;;
52948;SDS011;38812;50.942;3.644;2023-03-19T16:59:39;11.45;;;5.80;;
52948;SDS011;38812;50.942;3.644;2023-03-19T17:02:13;8.18;;;3.70;;
52948;SDS011;38812;50.942;3.644;2023-03-19T17:04:40;10.40;;;4.28;;
52948;SDS011;38812;50.942;3.644;2023-03-19T17:07:06;7.50;;;3.80;;
52948;SDS011;38812;50.942;3.644;2023-03-19T17:09:32;7.03;;;3.88;;